sensor_id;sensor_type;location;lat;lon;timestamp;pressure;altitude;pressure_sealevel;temperature;humidity
61874;BME280;49692;55.052;73.310;2022-09-30T00:02:08;101611.06;;;-0.30;80.37
61874;BME280;49692;55.052;73.310;2022-09-30T00:05:00;101624.25;;;-0.48;80.81
61874;BME280;49692;55.052;73.310;2022-09-30T00:07:33;101622.34;;;-0.54;81.20
61874;BME280;49692;55.052;73.310;2022-09-30T00:10:05;101633.00;;;-0.44;80.92
61874;BME280;49692;55.052;73.310;2022-09-30T00:12:44;101627.50;;;-0.54;81.20
61874;BME280;49692;55.052;73.310;2022-09-30T00:15:13;101638.69;;;-0.55;80.88
61874;BME280;49692;55.052;73.310;2022-09-30T00:17:43;101624.38;;;-0.43;81.25
61874;BME280;49692;55.052;73.310;2022-09-30T00:20:21;101648.19;;;-0.54;81.11
61874;BME280;49692;55.052;73.310;2022-09-30T00:22:48;101645.75;;;-0.49;80.86
61874;BME280;49692;55.052;73.310;2022-09-30T00:25:26;101651.84;;;-0.47;81.49
61874;BME280;49692;55.052;73.310;2022-09-30T00:27:57;101649.56;;;-0.63;81.51
61874;BME280;49692;55.052;73.310;2022-09-30T00:30:30;101650.16;;;-0.46;81.61
61874;BME280;49692;55.052;73.310;2022-09-30T00:33:02;101642.44;;;-0.45;81.59
61874;BME280;49692;55.052;73.310;2022-09-30T00:35:29;101652.88;;;-0.42;80.90
61874;BME280;49692;55.052;73.310;2022-09-30T00:38:07;101658.88;;;-0.43;81.30
61874;BME280;49692;55.052;73.310;2022-09-30T00:40:38;101662.63;;;-0.33;81.04
61874;BME280;49692;55.052;73.310;2022-09-30T00:43:18;101656.69;;;-0.30;81.49
61874;BME280;49692;55.052;73.310;2022-09-30T00:45:55;101649.41;;;-0.42;81.60
61874;BME280;49692;55.052;73.310;2022-09-30T00:48:33;101660.25;;;-0.54;81.69
61874;BME280;49692;55.052;73.310;2022-09-30T00:51:05;101664.31;;;-0.61;81.88
61874;BME280;49692;55.052;73.310;2022-09-30T00:53:51;101663.13;;;-0.45;82.31
61874;BME280;49692;55.052;73.310;2022-09-30T00:56:26;101665.56;;;-0.49;82.26
61874;BME280;49692;55.052;73.310;2022-09-30T00:59:12;101664.09;;;-0.41;81.51
61874;BME280;49692;55.052;73.310;2022-09-30T01:01:42;101668.50;;;-0.39;81.55
61874;BME280;49692;55.052;73.310;2022-09-30T01:04:15;101671.56;;;-0.49;81.37
61874;BME280;49692;55.052;73.310;2022-09-30T01:06:48;101675.09;;;-0.47;81.99
61874;BME280;49692;55.052;73.310;2022-09-30T01:09:17;101671.91;;;-0.40;81.64
61874;BME280;49692;55.052;73.310;2022-09-30T01:11:47;101672.59;;;-0.45;81.81
61874;BME280;49692;55.052;73.310;2022-09-30T01:14:26;101669.94;;;-0.47;82.85
61874;BME280;49692;55.052;73.310;2022-09-30T01:17:21;101674.22;;;-0.47;81.98
61874;BME280;49692;55.052;73.310;2022-09-30T01:29:19;101680.78;;;-0.57;82.76
61874;BME280;49692;55.052;73.310;2022-09-30T01:31:52;101683.94;;;-0.66;83.22
61874;BME280;49692;55.052;73.310;2022-09-30T01:40:03;101695.88;;;-0.44;82.70
61874;BME280;49692;55.052;73.310;2022-09-30T01:45:36;101691.81;;;-0.35;81.99
61874;BME280;49692;55.052;73.310;2022-09-30T01:48:26;101691.25;;;-0.27;82.17
61874;BME280;49692;55.052;73.310;2022-09-30T01:51:16;101702.91;;;-0.40;82.62
61874;BME280;49692;55.052;73.310;2022-09-30T01:54:23;101716.31;;;-0.50;82.52
61874;BME280;49692;55.052;73.310;2022-09-30T01:56:53;101711.94;;;-0.27;82.05
61874;BME280;49692;55.052;73.310;2022-09-30T01:59:33;101717.06;;;-0.28;81.81
61874;BME280;49692;55.052;73.310;2022-09-30T02:02:17;101709.84;;;-0.39;82.27
61874;BME280;49692;55.052;73.310;2022-09-30T02:07:56;101711.66;;;-0.09;81.04
61874;BME280;49692;55.052;73.310;2022-09-30T02:13:15;101725.22;;;-0.16;81.63
61874;BME280;49692;55.052;73.310;2022-09-30T02:15:53;101715.81;;;-0.14;81.62
61874;BME280;49692;55.052;73.310;2022-09-30T02:18:31;101722.25;;;-0.27;82.19
61874;BME280;49692;55.052;73.310;2022-09-30T02:21:05;101731.91;;;-0.21;81.70
61874;BME280;49692;55.052;73.310;2022-09-30T02:23:37;101739.69;;;-0.21;82.29
61874;BME280;49692;55.052;73.310;2022-09-30T02:26:20;101740.69;;;-0.17;81.50
61874;BME280;49692;55.052;73.310;2022-09-30T02:28:57;101735.50;;;-0.17;81.77
61874;BME280;49692;55.052;73.310;2022-09-30T02:31:38;101743.63;;;-0.06;80.81
61874;BME280;49692;55.052;73.310;2022-09-30T02:34:20;101747.28;;;0.00;81.56
61874;BME280;49692;55.052;73.310;2022-09-30T02:37:06;101747.47;;;0.06;80.70
61874;BME280;49692;55.052;73.310;2022-09-30T02:40:01;101749.75;;;0.25;80.55
61874;BME280;49692;55.052;73.310;2022-09-30T02:42:31;101755.13;;;0.03;80.62
61874;BME280;49692;55.052;73.310;2022-09-30T02:45:11;101749.75;;;-0.03;81.38
61874;BME280;49692;55.052;73.310;2022-09-30T02:47:57;101751.81;;;0.07;80.29
61874;BME280;49692;55.052;73.310;2022-09-30T02:50:35;101749.22;;;0.07;81.28
61874;BME280;49692;55.052;73.310;2022-09-30T02:53:34;101748.25;;;0.31;79.94
61874;BME280;49692;55.052;73.310;2022-09-30T02:58:41;101751.00;;;0.37;79.69
61874;BME280;49692;55.052;73.310;2022-09-30T03:01:15;101750.84;;;0.04;80.63
61874;BME280;49692;55.052;73.310;2022-09-30T03:03:57;101750.31;;;0.43;79.94
61874;BME280;49692;55.052;73.310;2022-09-30T03:06:27;101746.88;;;0.43;78.81
61874;BME280;49692;55.052;73.310;2022-09-30T03:08:55;101755.50;;;0.43;78.97
61874;BME280;49692;55.052;73.310;2022-09-30T03:11:26;101759.22;;;0.51;78.70
61874;BME280;49692;55.052;73.310;2022-09-30T03:14:07;101759.09;;;0.47;78.20
61874;BME280;49692;55.052;73.310;2022-09-30T03:17:04;101766.56;;;0.66;78.32
61874;BME280;49692;55.052;73.310;2022-09-30T03:20:11;101770.38;;;0.79;78.15
61874;BME280;49692;55.052;73.310;2022-09-30T03:22:57;101766.69;;;0.71;77.57
61874;BME280;49692;55.052;73.310;2022-09-30T03:26:21;101775.81;;;0.89;77.60
61874;BME280;49692;55.052;73.310;2022-09-30T03:34:59;101767.59;;;1.34;75.99
61874;BME280;49692;55.052;73.310;2022-09-30T03:41:02;101776.59;;;1.15;76.22
61874;BME280;49692;55.052;73.310;2022-09-30T03:43:56;101783.09;;;1.01;76.45
61874;BME280;49692;55.052;73.310;2022-09-30T03:46:37;101785.00;;;1.38;75.37
61874;BME280;49692;55.052;73.310;2022-09-30T03:49:13;101783.53;;;1.48;74.91
61874;BME280;49692;55.052;73.310;2022-09-30T03:51:46;101781.38;;;1.33;75.50
61874;BME280;49692;55.052;73.310;2022-09-30T03:54:14;101783.56;;;1.50;75.14
61874;BME280;49692;55.052;73.310;2022-09-30T03:56:42;101788.72;;;1.48;74.08
61874;BME280;49692;55.052;73.310;2022-09-30T03:59:16;101780.53;;;1.65;73.89
61874;BME280;49692;55.052;73.310;2022-09-30T04:01:46;101784.66;;;1.58;74.10
61874;BME280;49692;55.052;73.310;2022-09-30T04:04:14;101789.84;;;1.58;75.00
61874;BME280;49692;55.052;73.310;2022-09-30T04:06:50;101784.28;;;1.44;73.96
61874;BME280;49692;55.052;73.310;2022-09-30T04:09:27;101791.19;;;1.43;73.74
61874;BME280;49692;55.052;73.310;2022-09-30T04:11:56;101795.47;;;1.43;74.39
61874;BME280;49692;55.052;73.310;2022-09-30T04:14:23;101796.78;;;1.59;74.39
61874;BME280;49692;55.052;73.310;2022-09-30T04:16:50;101796.53;;;1.50;73.58
61874;BME280;49692;55.052;73.310;2022-09-30T04:19:18;101796.50;;;1.48;73.58
61874;BME280;49692;55.052;73.310;2022-09-30T04:21:46;101808.03;;;1.59;73.87
61874;BME280;49692;55.052;73.310;2022-09-30T04:24:13;101799.81;;;1.76;73.24
61874;BME280;49692;55.052;73.310;2022-09-30T04:26:41;101787.16;;;1.55;73.12
61874;BME280;49692;55.052;73.310;2022-09-30T04:29:07;101795.53;;;1.44;73.96
61874;BME280;49692;55.052;73.310;2022-09-30T04:31:34;101801.03;;;1.25;73.32
61874;BME280;49692;55.052;73.310;2022-09-30T04:34:01;101798.44;;;1.25;73.00
61874;BME280;49692;55.052;73.310;2022-09-30T04:36:28;101794.44;;;1.36;73.87
61874;BME280;49692;55.052;73.310;2022-09-30T04:38:54;101803.75;;;1.29;72.69
61874;BME280;49692;55.052;73.310;2022-09-30T04:41:22;101801.56;;;1.43;72.73
61874;BME280;49692;55.052;73.310;2022-09-30T04:43:48;101793.50;;;1.34;71.93
61874;BME280;49692;55.052;73.310;2022-09-30T04:46:22;101809.88;;;1.33;71.16
61874;BME280;49692;55.052;73.310;2022-09-30T04:48:49;101813.16;;;1.26;71.24
61874;BME280;49692;55.052;73.310;2022-09-30T04:51:19;101802.53;;;1.49;71.16
61874;BME280;49692;55.052;73.310;2022-09-30T04:53:48;101802.59;;;1.50;70.83
61874;BME280;49692;55.052;73.310;2022-09-30T04:56:15;101816.09;;;1.70;70.18
61874;BME280;49692;55.052;73.310;2022-09-30T04:58:45;101809.81;;;1.62;68.37
61874;BME280;49692;55.052;73.310;2022-09-30T05:01:15;101805.81;;;1.73;68.71
61874;BME280;49692;55.052;73.310;2022-09-30T05:03:44;101818.81;;;1.76;68.28
61874;BME280;49692;55.052;73.310;2022-09-30T05:06:15;101813.81;;;1.83;68.31
61874;BME280;49692;55.052;73.310;2022-09-30T05:08:42;101817.56;;;1.94;68.14
61874;BME280;49692;55.052;73.310;2022-09-30T05:11:14;101814.38;;;2.04;66.71
61874;BME280;49692;55.052;73.310;2022-09-30T05:13:45;101820.53;;;1.74;65.98
61874;BME280;49692;55.052;73.310;2022-09-30T05:16:13;101831.25;;;1.88;67.12
61874;BME280;49692;55.052;73.310;2022-09-30T05:18:41;101807.81;;;1.85;67.41
61874;BME280;49692;55.052;73.310;2022-09-30T05:21:12;101819.13;;;1.87;67.59
61874;BME280;49692;55.052;73.310;2022-09-30T05:23:41;101819.69;;;1.75;67.65
61874;BME280;49692;55.052;73.310;2022-09-30T05:26:13;101816.88;;;2.01;67.12
61874;BME280;49692;55.052;73.310;2022-09-30T05:28:43;101817.75;;;2.02;66.20
61874;BME280;49692;55.052;73.310;2022-09-30T05:31:12;101819.06;;;2.19;66.46
61874;BME280;49692;55.052;73.310;2022-09-30T05:33:42;101816.19;;;2.45;66.28
61874;BME280;49692;55.052;73.310;2022-09-30T05:36:13;101817.56;;;2.29;65.53
61874;BME280;49692;55.052;73.310;2022-09-30T05:38:41;101816.72;;;2.30;64.68
61874;BME280;49692;55.052;73.310;2022-09-30T05:41:13;101821.56;;;2.53;65.41
61874;BME280;49692;55.052;73.310;2022-09-30T05:43:43;101817.84;;;2.42;64.98
61874;BME280;49692;55.052;73.310;2022-09-30T05:46:19;101813.28;;;2.31;65.10
61874;BME280;49692;55.052;73.310;2022-09-30T05:48:57;101820.44;;;2.40;63.58
61874;BME280;49692;55.052;73.310;2022-09-30T05:51:51;101822.53;;;2.57;64.36
61874;BME280;49692;55.052;73.310;2022-09-30T05:54:19;101816.47;;;2.56;62.65
61874;BME280;49692;55.052;73.310;2022-09-30T05:56:47;101818.13;;;2.92;62.77
61874;BME280;49692;55.052;73.310;2022-09-30T05:59:29;101816.97;;;2.79;63.20
61874;BME280;49692;55.052;73.310;2022-09-30T06:02:11;101829.25;;;2.48;62.72
61874;BME280;49692;55.052;73.310;2022-09-30T06:04:54;101832.50;;;2.38;62.69
61874;BME280;49692;55.052;73.310;2022-09-30T06:07:33;101837.69;;;2.38;62.28
61874;BME280;49692;55.052;73.310;2022-09-30T06:10:10;101829.16;;;2.44;60.93
61874;BME280;49692;55.052;73.310;2022-09-30T06:12:41;101823.09;;;2.81;61.35
61874;BME280;49692;55.052;73.310;2022-09-30T06:15:09;101822.84;;;3.12;62.00
61874;BME280;49692;55.052;73.310;2022-09-30T06:17:36;101828.78;;;3.05;58.75
61874;BME280;49692;55.052;73.310;2022-09-30T06:20:10;101834.97;;;3.10;58.61
61874;BME280;49692;55.052;73.310;2022-09-30T06:22:43;101822.91;;;3.13;58.26
61874;BME280;49692;55.052;73.310;2022-09-30T06:25:11;101825.94;;;2.94;58.73
61874;BME280;49692;55.052;73.310;2022-09-30T06:27:46;101832.94;;;3.39;58.58
61874;BME280;49692;55.052;73.310;2022-09-30T06:30:18;101825.91;;;3.32;57.92
61874;BME280;49692;55.052;73.310;2022-09-30T07:10:23;101840.50;;;3.71;55.39
61874;BME280;49692;55.052;73.310;2022-09-30T07:13:01;101845.13;;;3.86;55.00
61874;BME280;49692;55.052;73.310;2022-09-30T07:15:32;101836.56;;;3.94;54.02
61874;BME280;49692;55.052;73.310;2022-09-30T07:18:00;101840.53;;;3.73;56.00
61874;BME280;49692;55.052;73.310;2022-09-30T07:20:27;101842.94;;;4.10;54.86
61874;BME280;49692;55.052;73.310;2022-09-30T07:22:54;101848.03;;;4.05;56.17
61874;BME280;49692;55.052;73.310;2022-09-30T07:25:26;101854.66;;;4.38;53.02
61874;BME280;49692;55.052;73.310;2022-09-30T07:27:56;101848.16;;;4.11;52.62
61874;BME280;49692;55.052;73.310;2022-09-30T07:30:29;101847.03;;;3.97;54.27
61874;BME280;49692;55.052;73.310;2022-09-30T07:33:09;101844.69;;;3.63;56.25
61874;BME280;49692;55.052;73.310;2022-09-30T07:35:49;101850.63;;;4.05;56.81
61874;BME280;49692;55.052;73.310;2022-09-30T07:38:23;101842.44;;;4.32;56.41
61874;BME280;49692;55.052;73.310;2022-09-30T07:41:05;101844.41;;;4.47;55.71
61874;BME280;49692;55.052;73.310;2022-09-30T07:43:38;101842.56;;;4.40;53.06
61874;BME280;49692;55.052;73.310;2022-09-30T07:46:24;101853.06;;;3.94;53.77
61874;BME280;49692;55.052;73.310;2022-09-30T07:48:53;101843.50;;;3.47;55.24
61874;BME280;49692;55.052;73.310;2022-09-30T07:51:36;101856.09;;;3.71;55.77
61874;BME280;49692;55.052;73.310;2022-09-30T07:54:14;101846.25;;;4.56;54.36
61874;BME280;49692;55.052;73.310;2022-09-30T07:56:42;101842.50;;;4.97;53.37
61874;BME280;49692;55.052;73.310;2022-09-30T07:59:23;101843.50;;;5.07;53.61
61874;BME280;49692;55.052;73.310;2022-09-30T08:01:53;101852.13;;;5.03;53.38
61874;BME280;49692;55.052;73.310;2022-09-30T08:04:23;101853.34;;;4.65;53.88
61874;BME280;49692;55.052;73.310;2022-09-30T08:06:57;101855.81;;;4.56;54.71
61874;BME280;49692;55.052;73.310;2022-09-30T08:09:37;101858.78;;;4.24;52.82
61874;BME280;49692;55.052;73.310;2022-09-30T08:12:06;101864.88;;;4.26;53.30
61874;BME280;49692;55.052;73.310;2022-09-30T08:14:55;101860.41;;;4.17;53.73
61874;BME280;49692;55.052;73.310;2022-09-30T08:17:52;101864.66;;;4.65;52.92
61874;BME280;49692;55.052;73.310;2022-09-30T08:20:26;101858.53;;;4.62;52.40
61874;BME280;49692;55.052;73.310;2022-09-30T08:22:55;101866.22;;;4.54;52.26
61874;BME280;49692;55.052;73.310;2022-09-30T08:25:32;101871.63;;;4.66;52.71
61874;BME280;49692;55.052;73.310;2022-09-30T08:28:15;101865.72;;;4.80;52.65
61874;BME280;49692;55.052;73.310;2022-09-30T08:30:43;101873.66;;;4.88;53.01
61874;BME280;49692;55.052;73.310;2022-09-30T08:33:12;101874.06;;;4.56;52.69
61874;BME280;49692;55.052;73.310;2022-09-30T08:35:44;101874.78;;;4.47;52.66
61874;BME280;49692;55.052;73.310;2022-09-30T08:38:18;101876.13;;;4.78;51.42
61874;BME280;49692;55.052;73.310;2022-09-30T08:41:07;101878.03;;;4.90;51.09
61874;BME280;49692;55.052;73.310;2022-09-30T08:52:26;101881.97;;;4.10;52.29
61874;BME280;49692;55.052;73.310;2022-09-30T08:54:59;101881.22;;;4.17;52.92
61874;BME280;49692;55.052;73.310;2022-09-30T08:57:35;101872.53;;;4.16;52.46
61874;BME280;49692;55.052;73.310;2022-09-30T09:00:07;101887.59;;;4.34;52.93
61874;BME280;49692;55.052;73.310;2022-09-30T09:02:48;101887.81;;;4.48;51.57
61874;BME280;49692;55.052;73.310;2022-09-30T09:20:56;101890.84;;;5.36;50.38
61874;BME280;49692;55.052;73.310;2022-09-30T09:23:31;101895.66;;;5.08;50.60
61874;BME280;49692;55.052;73.310;2022-09-30T09:26:00;101891.97;;;4.92;50.99
61874;BME280;49692;55.052;73.310;2022-09-30T09:29:02;101889.38;;;4.94;51.10
61874;BME280;49692;55.052;73.310;2022-09-30T09:31:30;101895.31;;;4.82;52.18
61874;BME280;49692;55.052;73.310;2022-09-30T09:34:05;101908.66;;;4.48;52.66
61874;BME280;49692;55.052;73.310;2022-09-30T09:42:23;101906.75;;;3.90;53.91
61874;BME280;49692;55.052;73.310;2022-09-30T09:47:58;101906.81;;;3.94;54.91
61874;BME280;49692;55.052;73.310;2022-09-30T09:53:52;101907.13;;;4.60;53.78
61874;BME280;49692;55.052;73.310;2022-09-30T09:56:29;101903.66;;;4.61;53.03
61874;BME280;49692;55.052;73.310;2022-09-30T09:59:14;101912.81;;;4.37;52.55
61874;BME280;49692;55.052;73.310;2022-09-30T10:01:50;101915.41;;;4.37;52.35
61874;BME280;49692;55.052;73.310;2022-09-30T10:04:27;101925.16;;;4.49;51.56
61874;BME280;49692;55.052;73.310;2022-09-30T10:07:12;101916.63;;;4.59;52.50
61874;BME280;49692;55.052;73.310;2022-09-30T10:09:41;101916.13;;;4.28;52.62
61874;BME280;49692;55.052;73.310;2022-09-30T10:14:49;101922.16;;;4.78;52.82
61874;BME280;49692;55.052;73.310;2022-09-30T10:17:27;101920.34;;;4.74;52.98
61874;BME280;49692;55.052;73.310;2022-09-30T10:20:16;101927.50;;;4.86;52.28
61874;BME280;49692;55.052;73.310;2022-09-30T10:22:46;101928.94;;;4.66;53.21
61874;BME280;49692;55.052;73.310;2022-09-30T10:25:23;101927.25;;;4.72;53.79
61874;BME280;49692;55.052;73.310;2022-09-30T10:28:46;101927.25;;;4.70;53.26
61874;BME280;49692;55.052;73.310;2022-09-30T10:31:36;101939.22;;;4.59;54.01
61874;BME280;49692;55.052;73.310;2022-09-30T10:34:30;101939.66;;;4.87;53.43
61874;BME280;49692;55.052;73.310;2022-09-30T10:37:19;101936.69;;;4.65;54.08
61874;BME280;49692;55.052;73.310;2022-09-30T10:40:15;101942.81;;;4.67;54.46
61874;BME280;49692;55.052;73.310;2022-09-30T10:42:45;101941.91;;;4.65;54.51
61874;BME280;49692;55.052;73.310;2022-09-30T10:45:37;101943.84;;;4.77;54.19
61874;BME280;49692;55.052;73.310;2022-09-30T10:48:16;101948.06;;;4.69;54.29
61874;BME280;49692;55.052;73.310;2022-09-30T10:50:52;101945.53;;;4.73;54.12
61874;BME280;49692;55.052;73.310;2022-09-30T10:53:27;101947.81;;;4.55;54.10
61874;BME280;49692;55.052;73.310;2022-09-30T10:55:56;101949.66;;;4.60;53.96
61874;BME280;49692;55.052;73.310;2022-09-30T11:01:31;101948.75;;;4.58;53.35
61874;BME280;49692;55.052;73.310;2022-09-30T11:04:29;101956.53;;;4.55;54.05
61874;BME280;49692;55.052;73.310;2022-09-30T11:07:20;101950.31;;;4.48;54.29
61874;BME280;49692;55.052;73.310;2022-09-30T11:10:02;101944.03;;;4.35;55.46
61874;BME280;49692;55.052;73.310;2022-09-30T11:12:51;101956.22;;;4.37;55.91
61874;BME280;49692;55.052;73.310;2022-09-30T11:15:29;101956.16;;;4.33;56.11
61874;BME280;49692;55.052;73.310;2022-09-30T11:18:13;101956.25;;;4.40;55.80
61874;BME280;49692;55.052;73.310;2022-09-30T11:20:58;101957.81;;;4.30;56.87
61874;BME280;49692;55.052;73.310;2022-09-30T11:23:42;101961.38;;;4.35;56.69
61874;BME280;49692;55.052;73.310;2022-09-30T11:26:17;101959.53;;;4.29;57.09
61874;BME280;49692;55.052;73.310;2022-09-30T11:32:12;101971.84;;;4.38;57.60
61874;BME280;49692;55.052;73.310;2022-09-30T11:44:02;101979.50;;;4.29;57.34
61874;BME280;49692;55.052;73.310;2022-09-30T11:49:38;101984.25;;;4.05;58.71
61874;BME280;49692;55.052;73.310;2022-09-30T11:58:12;101990.75;;;3.83;59.79
61874;BME280;49692;55.052;73.310;2022-09-30T12:00:49;101979.38;;;3.78;60.64
61874;BME280;49692;55.052;73.310;2022-09-30T12:03:40;101990.69;;;3.80;60.06
61874;BME280;49692;55.052;73.310;2022-09-30T12:08:55;102000.00;;;3.69;59.75
61874;BME280;49692;55.052;73.310;2022-09-30T12:11:49;101995.72;;;3.72;60.16
61874;BME280;49692;55.052;73.310;2022-09-30T12:14:27;101997.25;;;3.63;61.17
61874;BME280;49692;55.052;73.310;2022-09-30T12:16:57;101992.97;;;3.66;61.09
61874;BME280;49692;55.052;73.310;2022-09-30T12:19:40;102003.50;;;3.71;60.82
61874;BME280;49692;55.052;73.310;2022-09-30T12:22:15;101998.19;;;3.66;61.02
61874;BME280;49692;55.052;73.310;2022-09-30T12:24:45;101994.56;;;3.58;61.07
61874;BME280;49692;55.052;73.310;2022-09-30T12:30:26;102005.47;;;3.43;61.77
61874;BME280;49692;55.052;73.310;2022-09-30T12:33:31;102012.41;;;3.41;61.91
61874;BME280;49692;55.052;73.310;2022-09-30T12:36:17;102008.81;;;3.36;61.55
61874;BME280;49692;55.052;73.310;2022-09-30T12:42:24;102016.63;;;3.37;62.11
61874;BME280;49692;55.052;73.310;2022-09-30T12:47:53;102025.25;;;3.36;62.28
61874;BME280;49692;55.052;73.310;2022-09-30T12:50:34;102019.75;;;3.22;62.79
61874;BME280;49692;55.052;73.310;2022-09-30T12:53:29;102024.88;;;3.19;63.13
61874;BME280;49692;55.052;73.310;2022-09-30T12:56:13;102030.84;;;3.15;62.95
61874;BME280;49692;55.052;73.310;2022-09-30T12:58:50;102024.59;;;3.07;63.68
61874;BME280;49692;55.052;73.310;2022-09-30T13:01:35;102038.31;;;3.01;63.41
61874;BME280;49692;55.052;73.310;2022-09-30T13:09:30;102039.75;;;2.90;64.30
61874;BME280;49692;55.052;73.310;2022-09-30T13:14:35;102043.78;;;2.78;65.04
61874;BME280;49692;55.052;73.310;2022-09-30T13:19:49;102040.06;;;2.68;65.69
61874;BME280;49692;55.052;73.310;2022-09-30T13:28:24;102053.00;;;2.65;66.31
61874;BME280;49692;55.052;73.310;2022-09-30T13:30:43;102060.50;;;2.55;67.15
61874;BME280;49692;55.052;73.310;2022-09-30T13:33:39;102059.56;;;2.52;67.72
61874;BME280;49692;55.052;73.310;2022-09-30T13:36:18;102060.38;;;2.50;68.34
61874;BME280;49692;55.052;73.310;2022-09-30T13:39:29;102062.97;;;2.50;68.59
61874;BME280;49692;55.052;73.310;2022-09-30T13:47:15;102071.28;;;2.38;69.63
61874;BME280;49692;55.052;73.310;2022-09-30T13:52:34;102073.78;;;2.35;70.33
61874;BME280;49692;55.052;73.310;2022-09-30T13:55:19;102073.66;;;2.30;70.92
61874;BME280;49692;55.052;73.310;2022-09-30T14:01:16;102088.31;;;2.28;71.15
61874;BME280;49692;55.052;73.310;2022-09-30T14:04:17;102091.63;;;2.22;71.57
61874;BME280;49692;55.052;73.310;2022-09-30T14:07:16;102086.25;;;2.16;71.35
61874;BME280;49692;55.052;73.310;2022-09-30T14:16:05;102096.38;;;2.07;71.84
61874;BME280;49692;55.052;73.310;2022-09-30T14:19:13;102095.47;;;2.06;72.00
61874;BME280;49692;55.052;73.310;2022-09-30T14:24:22;102106.59;;;2.02;71.95
61874;BME280;49692;55.052;73.310;2022-09-30T14:35:51;102109.09;;;1.99;72.42
61874;BME280;49692;55.052;73.310;2022-09-30T14:38:24;102111.50;;;1.93;72.38
61874;BME280;49692;55.052;73.310;2022-09-30T14:41:05;102107.06;;;1.89;72.66
61874;BME280;49692;55.052;73.310;2022-09-30T14:43:40;102114.88;;;1.90;72.35
61874;BME280;49692;55.052;73.310;2022-09-30T14:46:34;102111.47;;;1.91;72.38
61874;BME280;49692;55.052;73.310;2022-09-30T14:49:18;102108.63;;;1.84;72.92
61874;BME280;49692;55.052;73.310;2022-09-30T14:51:49;102123.09;;;1.75;72.83
61874;BME280;49692;55.052;73.310;2022-09-30T14:54:26;102118.97;;;1.82;72.89
61874;BME280;49692;55.052;73.310;2022-09-30T14:57:15;102115.00;;;1.66;73.13
61874;BME280;49692;55.052;73.310;2022-09-30T14:59:43;102129.88;;;1.72;73.59
61874;BME280;49692;55.052;73.310;2022-09-30T15:02:22;102136.91;;;1.76;73.48
61874;BME280;49692;55.052;73.310;2022-09-30T15:04:51;102131.53;;;1.70;73.20
61874;BME280;49692;55.052;73.310;2022-09-30T15:07:19;102130.53;;;1.65;73.50
61874;BME280;49692;55.052;73.310;2022-09-30T15:09:48;102140.91;;;1.65;73.18
61874;BME280;49692;55.052;73.310;2022-09-30T15:12:21;102137.50;;;1.67;73.64
61874;BME280;49692;55.052;73.310;2022-09-30T15:18:45;102143.59;;;1.68;73.67
61874;BME280;49692;55.052;73.310;2022-09-30T15:21:16;102137.84;;;1.51;73.96
61874;BME280;49692;55.052;73.310;2022-09-30T15:23:50;102144.00;;;1.54;73.95
61874;BME280;49692;55.052;73.310;2022-09-30T15:26:25;102148.44;;;1.57;73.81
61874;BME280;49692;55.052;73.310;2022-09-30T15:29:03;102156.00;;;1.51;74.06
61874;BME280;49692;55.052;73.310;2022-09-30T15:31:33;102144.50;;;1.42;74.25
61874;BME280;49692;55.052;73.310;2022-09-30T15:37:21;102157.47;;;1.42;74.53
61874;BME280;49692;55.052;73.310;2022-09-30T15:40:01;102145.00;;;1.32;75.17
61874;BME280;49692;55.052;73.310;2022-09-30T15:42:57;102160.66;;;1.35;75.35
61874;BME280;49692;55.052;73.310;2022-09-30T15:45:48;102162.16;;;1.28;75.15
61874;BME280;49692;55.052;73.310;2022-09-30T15:48:34;102169.78;;;1.24;75.89
61874;BME280;49692;55.052;73.310;2022-09-30T15:54:40;102165.69;;;1.05;76.35
61874;BME280;49692;55.052;73.310;2022-09-30T15:57:45;102174.72;;;1.16;76.69
61874;BME280;49692;55.052;73.310;2022-09-30T16:00:37;102174.56;;;1.11;76.68
61874;BME280;49692;55.052;73.310;2022-09-30T16:03:40;102178.38;;;0.97;76.93
61874;BME280;49692;55.052;73.310;2022-09-30T16:06:08;102178.38;;;0.97;77.36
61874;BME280;49692;55.052;73.310;2022-09-30T16:09:06;102187.78;;;0.95;77.30
61874;BME280;49692;55.052;73.310;2022-09-30T16:11:47;102184.94;;;0.87;77.22
61874;BME280;49692;55.052;73.310;2022-09-30T16:14:56;102195.28;;;0.87;77.92
61874;BME280;49692;55.052;73.310;2022-09-30T16:17:44;102188.06;;;0.78;78.35
61874;BME280;49692;55.052;73.310;2022-09-30T16:21:03;102187.28;;;0.81;78.07
61874;BME280;49692;55.052;73.310;2022-09-30T16:23:38;102199.06;;;0.73;78.70
61874;BME280;49692;55.052;73.310;2022-09-30T16:26:28;102200.31;;;0.82;78.38
61874;BME280;49692;55.052;73.310;2022-09-30T16:29:21;102194.66;;;0.70;78.54
61874;BME280;49692;55.052;73.310;2022-09-30T16:31:55;102203.31;;;0.71;78.83
61874;BME280;49692;55.052;73.310;2022-09-30T16:34:45;102191.78;;;0.62;78.78
61874;BME280;49692;55.052;73.310;2022-09-30T16:37:17;102195.22;;;0.61;79.19
61874;BME280;49692;55.052;73.310;2022-09-30T16:40:05;102197.72;;;0.60;78.97
61874;BME280;49692;55.052;73.310;2022-09-30T16:42:52;102199.34;;;0.56;79.49
61874;BME280;49692;55.052;73.310;2022-09-30T16:46:01;102198.16;;;0.48;80.17
61874;BME280;49692;55.052;73.310;2022-09-30T16:48:28;102197.97;;;0.43;79.70
61874;BME280;49692;55.052;73.310;2022-09-30T16:51:06;102195.69;;;0.51;79.80
61874;BME280;49692;55.052;73.310;2022-09-30T16:53:35;102197.97;;;0.43;79.42
61874;BME280;49692;55.052;73.310;2022-09-30T16:56:04;102208.44;;;0.46;79.69
61874;BME280;49692;55.052;73.310;2022-09-30T16:58:31;102207.47;;;0.43;79.91
61874;BME280;49692;55.052;73.310;2022-09-30T17:01:24;102203.53;;;0.52;79.06
61874;BME280;49692;55.052;73.310;2022-09-30T17:05:34;102198.09;;;0.46;79.66
61874;BME280;49692;55.052;73.310;2022-09-30T17:13:17;102203.44;;;0.51;79.39
61874;BME280;49692;55.052;73.310;2022-09-30T17:16:12;102199.41;;;0.35;80.18